Time;durP1;ratioP1;P1;durP2;ratioP2;P2;SDS_P1;SDS_P2;PMS_P1;PMS_P2;Temp;Humidity;BMP_temperature;BMP_pressure;BME280_temperature;BME280_humidity;BME280_pressure;Samples;Min_cycle;Max_cycle;Signal;HPM_P1;HPM_P2
2022/03/23 00:02:16;;;;;;;142.88;79.68;;;7.60;99.90;;;;;;5019039;28;20057;-73
2022/03/23 00:04:42;;;;;;;146.55;81.50;;;7.60;99.90;;;;;;5009628;28;20069;-73
2022/03/23 00:07:08;;;;;;;154.25;78.65;;;7.50;99.90;;;;;;5025337;28;20073;-73
2022/03/23 00:09:33;;;;;;;168.50;87.53;;;7.50;99.90;;;;;;5008902;28;20132;-72
2022/03/23 00:11:59;;;;;;;137.20;81.80;;;7.50;99.90;;;;;;5008231;28;20050;-73
2022/03/23 00:14:25;;;;;;;162.55;87.78;;;7.40;99.90;;;;;;5005995;28;20172;-72
2022/03/23 00:16:50;;;;;;;167.82;86.72;;;7.40;99.90;;;;;;5008778;28;20111;-73
2022/03/23 00:19:18;;;;;;;149.27;86.90;;;7.40;99.90;;;;;;5015654;28;20065;-73
2022/03/23 00:21:44;;;;;;;154.00;83.47;;;7.30;99.90;;;;;;5010864;28;20046;-73
2022/03/23 00:24:10;;;;;;;154.25;79.22;;;7.30;99.90;;;;;;5020861;28;20420;-73
2022/03/23 00:26:36;;;;;;;138.48;75.57;;;7.20;99.90;;;;;;5012244;28;20053;-73
2022/03/23 00:29:03;;;;;;;152.88;85.35;;;7.20;99.90;;;;;;5023798;28;20160;-73
2022/03/23 00:31:29;;;;;;;157.30;83.18;;;7.10;99.90;;;;;;5023556;28;20045;-72
2022/03/23 00:33:55;;;;;;;151.38;84.47;;;7.10;99.90;;;;;;5022602;28;20045;-73
2022/03/23 00:36:22;;;;;;;149.77;87.00;;;7.00;99.90;;;;;;5012431;28;20049;-72
2022/03/23 00:38:48;;;;;;;181.48;88.30;;;7.00;99.90;;;;;;5013285;28;20112;-73
2022/03/23 00:41:14;;;;;;;162.75;87.43;;;6.90;99.90;;;;;;5013656;28;20711;-73
2022/03/23 00:43:39;;;;;;;161.95;89.53;;;6.90;99.90;;;;;;5015599;28;20154;-72
2022/03/23 00:46:05;;;;;;;178.35;92.25;;;6.90;99.90;;;;;;5012398;28;20143;-73
2022/03/23 00:48:31;;;;;;;170.77;93.05;;;6.90;99.90;;;;;;5014995;28;20541;-73
2022/03/23 00:50:59;;;;;;;172.57;93.60;;;6.80;99.90;;;;;;5010745;28;20054;-73
2022/03/23 00:53:25;;;;;;;180.15;99.22;;;6.80;99.90;;;;;;5009353;28;20140;-72
2022/03/23 00:55:51;;;;;;;164.68;91.88;;;6.80;99.90;;;;;;5025202;28;20133;-73
2022/03/23 00:58:16;;;;;;;173.48;95.75;;;6.70;99.90;;;;;;5016711;28;20064;-73
2022/03/23 01:00:43;;;;;;;176.05;100.10;;;6.70;99.90;;;;;;5017708;28;20105;-72
2022/03/23 01:03:10;;;;;;;174.23;96.93;;;6.70;99.90;;;;;;5017824;28;20088;-73
2022/03/23 01:05:36;;;;;;;171.55;95.47;;;6.70;99.90;;;;;;5008001;28;20056;-73
2022/03/23 01:08:02;;;;;;;163.35;98.05;;;6.60;99.90;;;;;;5020415;28;20042;-73
2022/03/23 01:10:27;;;;;;;181.27;97.72;;;6.60;99.90;;;;;;5012529;28;20038;-73
2022/03/23 01:12:54;;;;;;;182.88;97.30;;;6.60;99.90;;;;;;5014540;28;20034;-72
2022/03/23 01:15:20;;;;;;;174.15;96.40;;;6.60;99.90;;;;;;5011039;28;20476;-73
2022/03/23 01:17:45;;;;;;;177.50;99.82;;;6.60;99.90;;;;;;5012313;28;20136;-72
2022/03/23 01:20:13;;;;;;;182.43;99.22;;;6.60;99.90;;;;;;5012543;28;20077;-73
2022/03/23 01:22:40;;;;;;;181.75;95.75;;;6.60;99.90;;;;;;5012949;28;20064;-73
2022/03/23 01:25:08;;;;;;;183.57;97.97;;;6.60;99.90;;;;;;5023137;28;20054;-73
2022/03/23 01:27:34;;;;;;;162.82;90.68;;;6.60;99.90;;;;;;5010973;28;20050;-73
2022/03/23 01:30:00;;;;;;;187.98;95.45;;;6.60;99.90;;;;;;5023220;28;20407;-73
2022/03/23 01:32:26;;;;;;;158.27;88.63;;;6.50;99.90;;;;;;5015301;28;20038;-73
2022/03/23 01:34:51;;;;;;;167.40;94.97;;;6.50;99.90;;;;;;5023702;28;20034;-73
2022/03/23 01:37:17;;;;;;;169.88;95.05;;;6.50;99.90;;;;;;5008546;28;20054;-73
2022/03/23 01:39:43;;;;;;;175.30;93.13;;;6.50;99.90;;;;;;5005686;28;20061;-73
2022/03/23 01:42:08;;;;;;;154.88;91.10;;;6.50;99.90;;;;;;5002364;28;20068;-73
2022/03/23 01:44:34;;;;;;;167.82;89.78;;;6.40;99.90;;;;;;5010540;28;20065;-73
2022/03/23 01:47:12;;;;;;;169.77;91.45;;;6.40;99.90;;;;;;5016661;28;20430;-73
2022/03/23 01:49:41;;;;;;;;;;;6.40;99.90;;;;;;5008926;28;20128;-73
2022/03/23 01:52:08;;;;;;;;;;;6.40;99.90;;;;;;5011360;28;19930;-73
2022/03/23 01:54:35;;;;;;;169.63;87.82;;;6.30;99.90;;;;;;5003177;28;19921;-73
2022/03/23 01:57:03;;;;;;;167.63;94.07;;;6.20;99.90;;;;;;5010996;28;20046;-73
2022/03/23 01:59:29;;;;;;;166.52;96.85;;;6.30;99.90;;;;;;5009410;28;20434;-73
2022/03/23 02:01:55;;;;;;;160.18;87.65;;;6.20;99.90;;;;;;5020487;28;20045;-73
2022/03/23 02:04:22;;;;;;;168.15;93.18;;;6.20;99.90;;;;;;5010812;28;20114;-73
2022/03/23 02:06:48;;;;;;;168.05;96.25;;;6.10;99.90;;;;;;5010789;28;20143;-73
2022/03/23 02:09:18;;;;;;;155.00;88.10;;;6.10;99.90;;;;;;5008062;28;20069;-73
2022/03/23 02:11:49;;;;;;;162.88;88.43;;;6.10;99.90;;;;;;5004880;28;20060;-73
2022/03/23 02:14:15;;;;;;;168.95;94.22;;;6.00;99.90;;;;;;5017905;28;20061;-73
2022/03/23 02:16:48;;;;;;;155.23;90.55;;;6.00;99.90;;;;;;5011335;28;20132;-73
2022/03/23 02:19:15;;;;;;;174.07;95.07;;;6.10;99.90;;;;;;5010951;28;20503;-73
2022/03/23 02:21:44;;;;;;;159.52;92.30;;;6.00;99.90;;;;;;5021206;28;20049;-72
2022/03/23 02:24:10;;;;;;;165.43;89.25;;;6.00;99.90;;;;;;5009713;28;20046;-73
2022/03/23 02:26:39;;;;;;;160.48;87.28;;;5.90;99.90;;;;;;5009286;28;20038;-73
2022/03/23 02:29:05;;;;;;;154.30;88.05;;;6.00;99.90;;;;;;5011303;28;20072;-73
2022/03/23 02:31:31;;;;;;;165.30;94.07;;;5.90;99.90;;;;;;5012876;28;20042;-73
2022/03/23 02:33:57;;;;;;;148.65;82.80;;;5.90;99.90;;;;;;5005446;28;20407;-73
2022/03/23 02:36:22;;;;;;;156.98;88.85;;;5.90;99.90;;;;;;5010742;28;20045;-73
2022/03/23 02:38:48;;;;;;;156.82;87.22;;;5.80;99.90;;;;;;5003548;28;20050;-73
2022/03/23 02:41:14;;;;;;;158.50;87.35;;;5.80;99.90;;;;;;5011509;28;20095;-73
2022/03/23 02:43:40;;;;;;;157.48;90.25;;;5.80;99.90;;;;;;5010131;28;20057;-72
2022/03/23 02:46:14;;;;;;;169.82;96.85;;;5.80;99.90;;;;;;5022665;28;20050;-72
2022/03/23 02:48:41;;;;;;;164.15;87.85;;;5.70;99.90;;;;;;5023347;28;20110;-72
2022/03/23 02:51:08;;;;;;;182.57;95.88;;;5.70;99.90;;;;;;5009984;28;20058;-72
2022/03/23 03:02:24;;;;;;;165.27;92.85;;;5.60;99.90;;;;;;5023135;28;20054;-72
2022/03/23 03:04:49;;;;;;;167.95;94.72;;;5.60;99.90;;;;;;5009298;28;20141;-72
2022/03/23 03:07:16;;;;;;;172.18;94.90;;;5.50;99.90;;;;;;5016149;28;20946;-72
2022/03/23 03:09:42;;;;;;;174.85;98.43;;;5.50;99.90;;;;;;5008317;28;20061;-72
2022/03/23 03:12:08;;;;;;;169.98;92.82;;;5.50;99.90;;;;;;5007608;28;20419;-72
2022/03/23 03:14:35;;;;;;;176.70;95.03;;;5.40;99.90;;;;;;5004850;28;20046;-72
2022/03/23 03:17:00;;;;;;;163.65;89.95;;;5.40;99.90;;;;;;5014652;28;20050;-72
2022/03/23 03:19:26;;;;;;;163.88;91.10;;;5.40;99.90;;;;;;5018747;28;20096;-72
2022/03/23 03:21:53;;;;;;;160.85;89.68;;;5.40;99.90;;;;;;5012806;28;20137;-72
2022/03/23 03:24:20;;;;;;;178.98;98.10;;;5.40;99.90;;;;;;5016941;28;20518;-72
2022/03/23 03:26:50;;;;;;;168.07;96.97;;;5.40;99.90;;;;;;5001703;28;20492;-72
2022/03/23 03:29:16;;;;;;;166.57;90.63;;;5.30;99.90;;;;;;5004350;28;20176;-72
2022/03/23 03:31:42;;;;;;;151.77;86.60;;;5.30;99.90;;;;;;5010644;28;20080;-72
2022/03/23 03:34:08;;;;;;;155.52;90.32;;;5.30;99.90;;;;;;5009602;28;20128;-72
2022/03/23 03:36:35;;;;;;;177.27;93.22;;;5.30;99.90;;;;;;5008507;28;20097;-72
2022/03/23 03:39:01;;;;;;;146.80;84.45;;;5.30;99.90;;;;;;5009701;28;20073;-72
2022/03/23 03:41:27;;;;;;;155.43;92.75;;;5.30;99.90;;;;;;5020277;28;20051;-72
2022/03/23 03:43:52;;;;;;;167.02;93.25;;;5.30;99.90;;;;;;5019075;28;20498;-72
2022/03/23 03:46:18;;;;;;;180.30;98.47;;;5.30;99.90;;;;;;5007486;28;20476;-72
2022/03/23 03:48:44;;;;;;;162.57;90.70;;;5.20;99.90;;;;;;5011724;28;20160;-72
2022/03/23 03:51:10;;;;;;;165.50;93.00;;;5.20;99.90;;;;;;5008192;28;20049;-72
2022/03/23 03:53:36;;;;;;;164.15;99.68;;;5.20;99.90;;;;;;5001880;28;20523;-72
2022/03/23 03:56:04;;;;;;;156.45;90.75;;;5.20;99.90;;;;;;5011159;28;20057;-73
2022/03/23 03:58:29;;;;;;;162.95;90.65;;;5.10;99.90;;;;;;5011846;28;20056;-74
2022/03/23 04:00:55;;;;;;;183.65;103.18;;;5.10;99.90;;;;;;5008981;28;20038;-73
2022/03/23 04:03:21;;;;;;;168.32;98.60;;;5.00;99.90;;;;;;5013323;28;20473;-74
2022/03/23 04:05:47;;;;;;;184.52;104.75;;;5.00;99.90;;;;;;5008212;28;20054;-73
2022/03/23 04:08:12;;;;;;;189.65;105.57;;;5.00;99.90;;;;;;5008612;28;20679;-74
2022/03/23 04:10:38;;;;;;;173.77;99.80;;;5.00;99.90;;;;;;5006872;28;20423;-73
2022/03/23 04:13:07;;;;;;;174.93;96.97;;;4.90;99.90;;;;;;5003845;28;20096;-73
2022/03/23 04:15:37;;;;;;;170.15;98.25;;;4.90;99.90;;;;;;5008647;28;20751;-73
2022/03/23 04:18:03;;;;;;;182.00;101.30;;;4.90;99.90;;;;;;5013179;28;20089;-74
2022/03/23 04:20:29;;;;;;;188.73;99.57;;;4.90;99.90;;;;;;5008361;28;20573;-74
2022/03/23 04:22:55;;;;;;;175.93;94.45;;;4.90;99.90;;;;;;5008854;28;20112;-72
2022/03/23 04:25:21;;;;;;;180.45;104.88;;;4.80;99.90;;;;;;5011726;28;20511;-72
2022/03/23 04:27:57;;;;;;;173.60;100.43;;;4.80;99.90;;;;;;5008928;28;20108;-72
2022/03/23 04:30:30;;;;;;;186.35;103.88;;;4.80;99.90;;;;;;5009047;28;20038;-72
2022/03/23 04:32:56;;;;;;;161.35;92.65;;;4.80;99.90;;;;;;5008020;28;20050;-72
2022/03/23 04:35:22;;;;;;;188.57;104.80;;;4.70;99.90;;;;;;4991841;28;20444;-72
2022/03/23 04:37:52;;;;;;;181.93;98.07;;;4.70;99.90;;;;;;5004326;28;20638;-72
2022/03/23 04:40:18;;;;;;;180.57;103.43;;;4.70;99.90;;;;;;5006030;28;20107;-72
2022/03/23 04:42:45;;;;;;;164.77;97.15;;;4.70;99.90;;;;;;5010158;28;20057;-72
2022/03/23 04:45:11;;;;;;;186.13;103.97;;;4.70;99.90;;;;;;5022424;28;20080;-72
2022/03/23 04:47:38;;;;;;;177.20;99.70;;;4.70;99.90;;;;;;5012643;28;20053;-72
2022/03/23 04:50:06;;;;;;;181.65;105.00;;;4.70;99.90;;;;;;5004623;28;20058;-72
2022/03/23 04:52:32;;;;;;;196.55;107.40;;;4.60;99.90;;;;;;5008712;28;20459;-73
2022/03/23 04:54:58;;;;;;;192.55;106.75;;;4.60;99.90;;;;;;5022328;28;20049;-72
2022/03/23 04:57:26;;;;;;;195.48;105.20;;;4.50;99.90;;;;;;5000429;28;20061;-72
2022/03/23 04:59:52;;;;;;;169.32;98.15;;;4.50;99.90;;;;;;5008631;28;20113;-72
2022/03/23 05:02:18;;;;;;;163.85;96.47;;;4.50;99.90;;;;;;5002436;28;20053;-72
2022/03/23 05:04:44;;;;;;;165.70;96.38;;;4.50;99.90;;;;;;5011268;28;20045;-72
2022/03/23 05:07:10;;;;;;;179.32;101.65;;;4.50;99.90;;;;;;5017486;28;20045;-72
2022/03/23 05:09:36;;;;;;;185.35;101.10;;;4.50;99.90;;;;;;5008834;28;20835;-72
2022/03/23 05:12:01;;;;;;;170.07;98.97;;;4.50;99.90;;;;;;5010858;28;20042;-72
2022/03/23 05:14:27;;;;;;;170.68;98.95;;;4.50;99.90;;;;;;5012199;28;20056;-72
2022/03/23 05:16:53;;;;;;;169.18;97.28;;;4.50;99.90;;;;;;5018437;28;20103;-72
2022/03/23 05:19:18;;;;;;;161.13;96.32;;;4.50;99.90;;;;;;5013586;28;20052;-72
2022/03/23 05:21:45;;;;;;;159.13;90.00;;;4.50;99.90;;;;;;5009944;28;20076;-72
2022/03/23 05:24:11;;;;;;;160.15;93.85;;;4.40;99.90;;;;;;5011222;28;20117;-72
2022/03/23 05:26:36;;;;;;;152.32;91.35;;;4.40;99.90;;;;;;5005480;28;20113;-72
2022/03/23 05:29:03;;;;;;;179.93;99.15;;;4.40;99.90;;;;;;4990310;28;20046;-72
2022/03/23 05:31:29;;;;;;;169.70;95.47;;;4.40;99.90;;;;;;5012286;28;20120;-71
2022/03/23 05:33:55;;;;;;;159.52;96.32;;;4.40;99.90;;;;;;5012362;28;20451;-71
2022/03/23 05:36:21;;;;;;;184.77;101.25;;;4.30;99.90;;;;;;5018996;28;20058;-72
2022/03/23 05:38:47;;;;;;;171.80;98.82;;;4.30;99.90;;;;;;5010099;28;20053;-72
2022/03/23 05:41:13;;;;;;;177.00;95.97;;;4.30;99.90;;;;;;5010211;28;20415;-72
2022/03/23 05:43:38;;;;;;;189.18;106.60;;;4.30;99.90;;;;;;5011974;28;20053;-72
2022/03/23 05:46:04;;;;;;;201.15;110.32;;;4.30;99.90;;;;;;5009599;28;20180;-72
2022/03/23 05:48:30;;;;;;;213.68;116.90;;;4.30;99.90;;;;;;5007147;28;20042;-72
2022/03/23 05:50:56;;;;;;;200.07;110.55;;;4.40;99.90;;;;;;5002943;28;20046;-72
2022/03/23 05:53:22;;;;;;;183.30;99.80;;;4.40;99.90;;;;;;5014237;28;20058;-71
2022/03/23 05:55:48;;;;;;;167.07;94.45;;;4.40;99.90;;;;;;5002618;28;20084;-72
2022/03/23 05:58:14;;;;;;;168.88;95.47;;;4.50;99.90;;;;;;5010414;28;20045;-72
2022/03/23 06:00:40;;;;;;;171.60;96.40;;;4.50;99.90;;;;;;5006459;28;20045;-72
2022/03/23 06:03:06;;;;;;;158.98;95.15;;;4.60;99.90;;;;;;5003406;28;20034;-72
2022/03/23 06:05:31;;;;;;;170.02;94.60;;;4.60;99.90;;;;;;5006690;28;20081;-72
2022/03/23 06:07:57;;;;;;;185.10;99.03;;;4.70;99.90;;;;;;5010969;28;20076;-72
2022/03/23 06:10:23;;;;;;;156.57;92.93;;;4.80;99.90;;;;;;5010674;28;20057;-72
2022/03/23 06:12:49;;;;;;;174.27;96.50;;;4.90;99.90;;;;;;5021272;28;20132;-72
2022/03/23 06:15:15;;;;;;;193.25;107.93;;;5.00;99.90;;;;;;5013894;28;20060;-71
2022/03/23 06:17:40;;;;;;;163.05;95.97;;;5.10;99.90;;;;;;5017772;28;20045;-70
2022/03/23 06:20:07;;;;;;;155.48;93.25;;;5.30;99.90;;;;;;5013229;28;20058;-71
2022/03/23 06:22:33;;;;;;;169.75;99.88;;;5.40;99.90;;;;;;5020500;28;20046;-71
2022/03/23 06:24:59;;;;;;;146.35;92.07;;;5.50;99.90;;;;;;5013624;28;20115;-71
2022/03/23 06:27:25;;;;;;;157.85;91.57;;;5.60;99.90;;;;;;5009202;28;20054;-71
2022/03/23 06:29:51;;;;;;;172.85;97.85;;;5.70;99.90;;;;;;5002563;28;21151;-71
2022/03/23 06:32:17;;;;;;;189.98;103.30;;;5.70;99.90;;;;;;5007961;28;20064;-71
2022/03/23 06:34:43;;;;;;;176.82;105.20;;;5.80;99.90;;;;;;5008064;28;20052;-71
2022/03/23 06:37:09;;;;;;;167.60;97.25;;;5.90;99.90;;;;;;5006968;28;20045;-70
2022/03/23 06:39:36;;;;;;;172.75;102.82;;;6.00;99.90;;;;;;5006915;28;20488;-71
2022/03/23 06:42:03;;;;;;;194.70;109.88;;;6.10;99.90;;;;;;5001211;28;20085;-71
2022/03/23 06:44:28;;;;;;;180.43;104.45;;;6.20;99.90;;;;;;5010683;28;20053;-71
2022/03/23 06:46:54;;;;;;;171.35;102.32;;;6.20;99.90;;;;;;5018237;28;20056;-71
2022/03/23 06:49:20;;;;;;;178.73;102.07;;;6.30;99.90;;;;;;5017798;28;20510;-71
2022/03/23 06:51:45;;;;;;;189.50;106.70;;;6.30;99.90;;;;;;5002516;28;20089;-71
2022/03/23 06:54:11;;;;;;;189.57;109.60;;;6.40;99.90;;;;;;5009192;28;20049;-71
2022/03/23 06:56:36;;;;;;;192.98;109.82;;;6.50;99.90;;;;;;5013494;28;20060;-71
2022/03/23 06:59:03;;;;;;;186.93;107.97;;;6.60;99.90;;;;;;5009691;28;20454;-71
2022/03/23 07:01:30;;;;;;;194.35;109.88;;;6.80;99.90;;;;;;5008259;28;20668;-71
2022/03/23 07:03:57;;;;;;;169.52;100.35;;;6.90;99.90;;;;;;5007764;28;20057;-70
2022/03/23 07:06:22;;;;;;;165.98;102.13;;;7.10;99.90;;;;;;5007079;28;20077;-70
2022/03/23 07:11:32;;;;;;;167.43;100.07;;;7.40;99.90;;;;;;5008223;28;20089;-72
2022/03/23 07:13:58;;;;;;;149.52;95.28;;;7.60;99.90;;;;;;5005666;28;20076;-74
2022/03/23 07:16:24;;;;;;;162.35;100.82;;;7.80;99.90;;;;;;5008374;28;20435;-75
2022/03/23 07:18:50;;;;;;;147.75;87.50;;;8.00;99.90;;;;;;5002893;28;20515;-70
2022/03/23 07:21:16;;;;;;;147.57;87.95;;;8.30;99.90;;;;;;5005686;28;20061;-71
2022/03/23 07:23:42;;;;;;;155.43;92.28;;;8.50;99.90;;;;;;5005740;28;20122;-72
2022/03/23 07:26:08;;;;;;;134.27;84.70;;;8.70;99.90;;;;;;5003373;28;20042;-71
2022/03/23 07:28:34;;;;;;;145.45;84.50;;;8.90;99.90;;;;;;5018975;28;20419;-70
2022/03/23 07:31:00;;;;;;;128.27;81.63;;;9.10;99.90;;;;;;5014162;28;20041;-71
2022/03/23 07:33:25;;;;;;;135.38;82.40;;;9.30;99.90;;;;;;5007680;28;20049;-71
2022/03/23 07:35:51;;;;;;;123.65;79.18;;;9.50;99.90;;;;;;5008509;28;20120;-73
2022/03/23 07:38:18;;;;;;;120.88;77.53;;;9.70;99.90;;;;;;5005390;28;20450;-73
2022/03/23 07:40:43;;;;;;;115.53;74.90;;;10.00;99.90;;;;;;5011088;28;20072;-72
2022/03/23 07:43:09;;;;;;;108.30;70.25;;;10.30;99.90;;;;;;5020256;28;20053;-72
2022/03/23 07:45:35;;;;;;;100.20;67.72;;;10.50;99.90;;;;;;5004988;28;20045;-72
2022/03/23 07:48:01;;;;;;;110.63;70.40;;;10.60;99.90;;;;;;5009340;28;20046;-72
2022/03/23 07:50:27;;;;;;;99.10;65.57;;;10.70;99.90;;;;;;5016859;28;20053;-72
2022/03/23 07:52:53;;;;;;;106.50;68.32;;;10.80;99.90;;;;;;5015887;28;20100;-72
2022/03/23 07:55:19;;;;;;;97.35;63.97;;;10.90;99.90;;;;;;5015464;28;20046;-72
2022/03/23 07:57:45;;;;;;;112.30;69.65;;;11.10;99.90;;;;;;5002522;28;20137;-72
2022/03/23 08:00:11;;;;;;;111.53;66.60;;;11.30;99.90;;;;;;4999875;28;20615;-72
2022/03/23 08:02:37;;;;;;;108.35;67.55;;;11.40;99.90;;;;;;5014315;28;20081;-72
2022/03/23 08:05:05;;;;;;;104.57;66.88;;;11.60;99.90;;;;;;5008985;28;20060;-72
2022/03/23 08:07:30;;;;;;;87.28;61.25;;;11.90;99.90;;;;;;5000953;28;20054;-72
2022/03/23 08:09:56;;;;;;;96.10;64.72;;;12.10;99.90;;;;;;5020598;28;20085;-73
2022/03/23 08:12:22;;;;;;;87.22;57.65;;;12.30;99.90;;;;;;4997895;28;20042;-73
2022/03/23 08:14:47;;;;;;;91.43;58.70;;;12.60;99.90;;;;;;5007079;28;20050;-73
2022/03/23 08:17:13;;;;;;;100.28;60.55;;;12.70;99.90;;;;;;4996388;28;20863;-72
2022/03/23 08:19:39;;;;;;;94.18;58.72;;;12.80;99.90;;;;;;5008840;28;20038;-72
2022/03/23 08:22:05;;;;;;;83.50;54.10;;;12.90;99.90;;;;;;5008096;28;20044;-72
2022/03/23 08:24:31;;;;;;;99.40;59.42;;;13.00;99.90;;;;;;5008209;28;20478;-74
2022/03/23 08:26:58;;;;;;;97.30;57.78;;;13.20;99.90;;;;;;5004119;28;20054;-72
2022/03/23 08:29:24;;;;;;;94.28;60.28;;;13.40;99.90;;;;;;5007259;28;20054;-71
2022/03/23 08:31:49;;;;;;;97.18;54.05;;;13.40;99.90;;;;;;5014532;28;20050;-73
2022/03/23 08:34:15;;;;;;;98.15;55.55;;;13.50;99.60;;;;;;5012467;28;20049;-71
2022/03/23 08:36:41;;;;;;;88.07;57.72;;;13.60;97.00;;;;;;5020013;28;20042;-72
2022/03/23 08:39:07;;;;;;;90.25;56.03;;;13.60;92.50;;;;;;5003955;28;20061;-70
2022/03/23 08:41:34;;;;;;;83.65;52.00;;;13.70;91.90;;;;;;5003308;28;20050;-71
2022/03/23 08:43:59;;;;;;;82.88;52.45;;;13.70;92.80;;;;;;5005822;28;20053;-74
2022/03/23 08:46:25;;;;;;;76.38;50.17;;;13.80;90.00;;;;;;5010507;28;20053;-72
2022/03/23 08:48:52;;;;;;;74.13;50.05;;;13.90;85.30;;;;;;5008884;28;20054;-72
2022/03/23 08:51:19;;;;;;;82.82;53.17;;;14.10;79.30;;;;;;5004607;28;20045;-70
2022/03/23 08:53:45;;;;;;;80.78;50.58;;;14.20;79.40;;;;;;5012118;28;20046;-71
2022/03/23 08:56:11;;;;;;;100.43;52.58;;;14.20;78.00;;;;;;5012001;28;20052;-70
2022/03/23 08:58:48;;;;;;;78.60;46.70;;;14.40;76.00;;;;;;5001183;28;20061;-70
2022/03/23 09:01:16;;;;;;;73.07;46.45;;;14.50;71.20;;;;;;5011187;28;20061;-69
2022/03/23 09:03:43;;;;;;;68.20;45.50;;;14.60;70.50;;;;;;5008307;28;20057;-70
2022/03/23 09:06:09;;;;;;;72.13;48.05;;;14.80;67.80;;;;;;4998005;28;20495;-70
2022/03/23 09:08:35;;;;;;;77.07;49.30;;;14.90;67.90;;;;;;5010856;28;20081;-70
2022/03/23 09:11:00;;;;;;;63.65;45.40;;;15.00;66.30;;;;;;5009893;28;20065;-69
2022/03/23 09:13:26;;;;;;;76.68;48.75;;;15.10;62.60;;;;;;5010921;28;20545;-69
2022/03/23 09:15:52;;;;;;;75.95;47.95;;;15.30;64.20;;;;;;5009673;28;20068;-70
2022/03/23 09:18:17;;;;;;;71.53;46.83;;;15.50;61.90;;;;;;5014952;28;20034;-70
2022/03/23 09:20:45;;;;;;;76.55;47.63;;;15.50;60.00;;;;;;5003832;28;20057;-70
2022/03/23 09:23:11;;;;;;;76.20;44.88;;;15.50;61.50;;;;;;5009745;28;20054;-70
2022/03/23 09:25:36;;;;;;;77.10;42.67;;;15.70;58.90;;;;;;5010938;28;20045;-70
2022/03/23 09:28:03;;;;;;;57.67;41.55;;;15.80;57.20;;;;;;5011293;28;20054;-71
2022/03/23 09:30:29;;;;;;;64.38;43.38;;;15.80;55.80;;;;;;5005028;28;20042;-71
2022/03/23 09:32:54;;;;;;;61.65;42.45;;;15.80;54.80;;;;;;5008589;28;20041;-71
2022/03/23 09:35:20;;;;;;;66.18;44.75;;;15.80;56.10;;;;;;5008801;28;20086;-70
2022/03/23 09:37:49;;;;;;;68.43;43.95;;;15.90;55.10;;;;;;5009424;28;20058;-70
2022/03/23 09:40:16;;;;;;;59.95;43.78;;;16.10;55.80;;;;;;5004384;28;20056;-71
2022/03/23 09:42:42;;;;;;;66.80;42.67;;;16.10;51.40;;;;;;5010240;28;20088;-70
2022/03/23 09:45:08;;;;;;;58.90;41.38;;;16.10;49.90;;;;;;5010369;28;20503;-70
2022/03/23 09:47:36;;;;;;;67.03;45.03;;;16.10;52.60;;;;;;5008586;28;20056;-70
2022/03/23 09:50:01;;;;;;;59.13;40.13;;;16.30;51.20;;;;;;5010737;28;20038;-70
2022/03/23 09:52:27;;;;;;;86.82;46.53;;;16.20;49.70;;;;;;5007420;28;20057;-71
2022/03/23 09:54:53;;;;;;;68.70;44.20;;;16.20;51.10;;;;;;5009621;28;20140;-70
2022/03/23 09:57:18;;;;;;;62.63;42.42;;;16.50;51.80;;;;;;5009857;28;20053;-71
2022/03/23 09:59:44;;;;;;;70.05;43.28;;;16.60;51.20;;;;;;5005546;28;20058;-71
2022/03/23 10:03:03;;;;;;;67.82;44.22;;;16.70;50.20;;;;;;5003226;28;20059;-71
2022/03/23 10:05:59;;;;;;;68.45;46.95;;;16.60;45.80;;;;;;5002699;28;20049;-71
2022/03/23 10:09:02;;;;;;;76.47;45.70;;;16.70;47.80;;;;;;4999046;28;20129;-71
2022/03/23 10:12:05;;;;;;;65.05;42.53;;;16.90;47.40;;;;;;5004929;28;20171;-71
2022/03/23 10:15:08;;;;;;;65.25;44.58;;;17.00;45.50;;;;;;4995655;28;20045;-71
2022/03/23 10:18:01;;;;;;;63.67;45.63;;;17.10;47.00;;;;;;5002175;28;20049;-71
2022/03/23 10:20:26;;;;;;;62.30;44.42;;;17.00;46.50;;;;;;4999656;28;20096;-70
2022/03/23 10:22:54;;;;;;;64.97;42.72;;;17.20;48.90;;;;;;4998271;28;20133;-71
2022/03/23 10:25:27;;;;;;;64.18;43.72;;;17.40;48.60;;;;;;5001000;28;20589;-71
2022/03/23 10:27:56;;;;;;;56.28;39.40;;;17.50;47.20;;;;;;5005840;28;20057;-71
2022/03/23 10:30:35;;;;;;;58.92;40.22;;;17.50;45.70;;;;;;5006574;28;20143;-71
2022/03/23 10:33:01;;;;;;;52.83;36.78;;;17.40;43.20;;;;;;4999716;28;20030;-71
2022/03/23 10:35:38;;;;;;;60.17;38.08;;;17.30;43.80;;;;;;4994068;28;20084;-71
2022/03/23 10:38:18;;;;;;;52.92;37.40;;;17.40;45.20;;;;;;5002165;28;20553;-72
2022/03/23 10:40:46;;;;;;;55.85;39.22;;;17.60;44.70;;;;;;5002103;28;20077;-72
2022/03/23 10:43:19;;;;;;;57.15;37.92;;;17.60;43.10;;;;;;4997450;28;20108;-72
2022/03/23 10:45:44;;;;;;;50.10;36.05;;;17.50;40.70;;;;;;5001169;28;20534;-72
2022/03/23 10:48:14;;;;;;;59.85;40.60;;;17.60;42.00;;;;;;4991342;28;20081;-72
2022/03/23 10:50:57;;;;;;;62.13;35.78;;;17.60;43.00;;;;;;5003471;28;20034;-72
2022/03/23 10:53:37;;;;;;;59.13;37.50;;;17.60;41.10;;;;;;4998711;28;20385;-73
2022/03/23 10:56:03;;;;;;;49.83;37.65;;;17.80;42.50;;;;;;5001860;28;20053;-72
2022/03/23 10:58:29;;;;;;;53.67;37.70;;;18.00;43.90;;;;;;4994881;28;20061;-71
2022/03/23 11:00:59;;;;;;;56.25;37.65;;;17.90;42.50;;;;;;5009487;28;20854;-71
2022/03/23 11:03:34;;;;;;;54.80;36.80;;;18.10;42.60;;;;;;5003691;28;20058;-71
2022/03/23 11:06:00;;;;;;;55.92;38.10;;;18.10;41.40;;;;;;5005922;28;20059;-71
2022/03/23 11:08:26;;;;;;;57.20;37.60;;;18.00;43.10;;;;;;5022331;28;20050;-72
2022/03/23 11:16:35;;;;;;;50.28;31.17;;;17.90;41.90;;;;;;4994872;28;20089;-73
2022/03/23 11:19:11;;;;;;;67.97;33.65;;;18.10;41.80;;;;;;5009714;28;20071;-72
2022/03/23 11:22:16;;;;;;;53.60;31.42;;;18.10;41.30;;;;;;4999491;28;20072;-72
2022/03/23 11:24:46;;;;;;;56.30;31.90;;;18.00;39.80;;;;;;5009566;28;20048;-72
2022/03/23 11:27:18;;;;;;;53.33;33.40;;;18.10;42.10;;;;;;5008628;28;20044;-72
2022/03/23 11:29:47;;;;;;;53.85;34.17;;;18.10;41.10;;;;;;5013084;28;20053;-72
2022/03/23 11:32:24;;;;;;;;;;;18.20;41.30;;;;;;5023238;28;20045;-72
2022/03/23 11:34:50;;;;;;;;;;;18.20;40.50;;;;;;4999659;28;19948;-72
2022/03/23 11:37:19;;;;;;;42.10;25.73;;;18.20;38.90;;;;;;5017808;28;19928;-72
2022/03/23 11:39:45;;;;;;;54.22;24.65;;;18.20;40.20;;;;;;5009692;28;20066;-73
2022/03/23 11:42:13;;;;;;;46.38;28.30;;;18.30;40.80;;;;;;5018613;28;20164;-72
2022/03/23 11:44:40;;;;;;;51.47;30.35;;;18.40;40.80;;;;;;5019933;28;20065;-73
2022/03/23 11:47:28;;;;;;;43.67;26.67;;;18.50;40.80;;;;;;5008643;28;20057;-71
2022/03/23 11:50:14;;;;;;;53.90;32.80;;;18.50;40.60;;;;;;4996956;28;20048;-71
2022/03/23 11:53:17;;;;;;;53.22;29.92;;;18.50;40.40;;;;;;5015164;28;20125;-71
2022/03/23 11:55:50;;;;;;;53.30;30.70;;;18.60;41.30;;;;;;5018772;28;20054;-71
2022/03/23 11:58:18;;;;;;;50.97;33.75;;;18.50;40.70;;;;;;5003665;28;20061;-72
2022/03/23 12:00:48;;;;;;;45.65;30.88;;;18.40;41.40;;;;;;4993196;28;20129;-71
2022/03/23 12:03:16;;;;;;;59.17;31.83;;;18.60;41.30;;;;;;5004781;28;20104;-72
2022/03/23 12:05:52;;;;;;;45.35;31.80;;;18.50;40.90;;;;;;5013999;28;20046;-71
2022/03/23 12:08:55;;;;;;;53.72;34.45;;;18.60;41.90;;;;;;5023708;28;20037;-72
2022/03/23 12:11:41;;;;;;;57.13;32.60;;;18.80;41.60;;;;;;5012188;28;20064;-72
2022/03/23 12:14:22;;;;;;;54.47;28.10;;;18.80;41.50;;;;;;5014262;28;20558;-72
2022/03/23 12:16:51;;;;;;;39.75;25.92;;;18.70;40.10;;;;;;5029301;28;20033;-71
2022/03/23 12:19:18;;;;;;;47.00;30.15;;;18.70;40.50;;;;;;5020052;28;20060;-71
2022/03/23 12:22:05;;;;;;;51.63;31.67;;;18.70;40.40;;;;;;5019593;28;20499;-71
2022/03/23 12:24:56;;;;;;;60.15;29.17;;;18.80;41.50;;;;;;5016898;28;20496;-71
2022/03/23 12:28:04;;;;;;;54.80;26.17;;;18.70;40.70;;;;;;5006538;28;20053;-71
2022/03/23 12:30:29;;;;;;;47.50;27.35;;;18.80;41.80;;;;;;4982497;28;20046;-71
2022/03/23 12:32:57;;;;;;;52.67;28.00;;;18.80;41.50;;;;;;5010101;28;20042;-71
2022/03/23 12:35:30;;;;;;;51.95;27.30;;;18.70;40.70;;;;;;5019984;28;20049;-71
2022/03/23 12:37:59;;;;;;;47.10;27.02;;;18.70;42.30;;;;;;5005937;28;20041;-72
2022/03/23 12:40:42;;;;;;;47.75;25.17;;;18.70;41.50;;;;;;5001580;28;20507;-71
2022/03/23 12:43:34;;;;;;;45.30;24.88;;;18.90;41.80;;;;;;5014301;28;20050;-71
2022/03/23 12:46:00;;;;;;;44.28;26.38;;;18.90;40.90;;;;;;5018462;28;20064;-71
2022/03/23 12:59:50;;;;;;;40.95;24.63;;;19.00;41.40;;;;;;5002570;28;20115;-72
2022/03/23 13:02:23;;;;;;;44.08;25.88;;;18.90;41.60;;;;;;5027172;28;20060;-72